Weather at Sundre Airport

Public forecast

Using degrees Celsius for public forecast. Weather courtesy of forecast.io.

Closest aviation weather report (METAR) to Sundre Airport

Closest report is Red Deer Regional Airport, 37.9 nm (70.2 km) NE. Retrieved 2021/10/24 17:00 UTC (51 minutes ago):

CYQF 241700Z AUTO 14004KT 9SM CLR 05/02 A2958 RMK SLP048

Closest aviation forecast (TAF) to Sundre Airport

Closest forecast is Red Deer Regional Airport, 37.9 nm (70.2 km) NE. Retrieved 2021/10/24 12:39 UTC (5 hours ago):

TAF TAF CYQF 241138Z 2412/2424 VRB03KT P6SM BKN120 PROB30 2412/2417 1/2SM FG FM241700 15006KT P6SM SCT120 FM241900 14012KT P6SM SKC RMK NXT FCST BY 241800Z